Time;durP1;ratioP1;P1;durP2;ratioP2;P2;SDS_P1;SDS_P2;PMS_P1;PMS_P2;Temp;Humidity;BMP_temperature;BMP_pressure;BME280_temperature;BME280_humidity;BME280_pressure;Samples;Min_cycle;Max_cycle;Signal;HPM_P1;HPM_P2
2022/10/29 04:37:58;;;;;;;7.88;7.10;;;22.80;99.90;;;;;;6237455;28;86486;-67
2022/10/29 04:41:00;;;;;;;7.70;6.90;;;22.80;99.90;;;;;;6202255;28;87978;-68
2022/10/29 04:44:02;;;;;;;8.55;7.22;;;22.80;99.90;;;;;;6195693;28;89217;-67
2022/10/29 04:47:04;;;;;;;7.70;6.90;;;22.80;99.90;;;;;;6184347;28;90755;-67
2022/10/29 04:50:07;;;;;;;7.72;7.03;;;22.80;99.90;;;;;;6192941;28;89143;-67
2022/10/29 04:53:10;;;;;;;7.88;7.18;;;22.70;99.90;;;;;;6194723;28;88242;-67
2022/10/29 04:56:12;;;;;;;8.73;7.82;;;22.70;99.90;;;;;;6187200;28;89151;-67
2022/10/29 04:59:14;;;;;;;7.13;6.45;;;22.80;99.90;;;;;;6207050;28;89199;-67
2022/10/29 05:02:17;;;;;;;7.72;7.03;;;22.80;99.90;;;;;;6205844;28;89088;-67
2022/10/29 05:05:20;;;;;;;7.22;6.63;;;22.70;99.90;;;;;;6203434;28;89089;-67
2022/10/29 05:08:24;;;;;;;7.80;7.00;;;22.70;99.90;;;;;;6189927;28;88415;-67
2022/10/29 05:11:26;;;;;;;8.00;7.20;;;22.70;99.90;;;;;;6205980;28;89217;-67
2022/10/29 05:14:28;;;;;;;7.47;6.78;;;22.70;99.90;;;;;;6205528;28;89357;-67
2022/10/29 05:17:30;;;;;;;7.43;6.72;;;22.70;99.90;;;;;;6193877;28;91377;-67
2022/10/29 05:20:33;;;;;;;7.60;6.90;;;22.70;99.90;;;;;;6191808;28;89006;-67
2022/10/29 05:23:37;;;;;;;6.82;6.22;;;22.70;99.90;;;;;;6183080;28;89249;-67
2022/10/29 05:26:39;;;;;;;7.35;6.60;;;22.70;99.90;;;;;;6205237;28;88232;-67
2022/10/29 05:29:41;;;;;;;7.50;6.80;;;22.70;99.90;;;;;;6193658;28;87967;-66
2022/10/29 05:32:43;;;;;;;7.20;6.50;;;22.70;99.90;;;;;;6192192;28;89071;-67
2022/10/29 05:35:45;;;;;;;7.20;6.50;;;22.70;99.90;;;;;;6192313;28;88922;-67
2022/10/29 05:38:49;;;;;;;7.65;6.85;;;22.70;99.90;;;;;;6212624;28;88652;-67
2022/10/29 05:41:51;;;;;;;6.97;6.28;;;22.70;99.90;;;;;;6229514;28;89078;-67
2022/10/29 05:44:53;;;;;;;6.93;6.30;;;22.70;99.90;;;;;;6228343;28;89302;-67
2022/10/29 05:47:59;;;;;;;7.00;6.30;;;22.70;99.90;;;;;;6224761;28;89197;-67
2022/10/29 05:51:01;;;;;;;6.93;6.20;;;22.70;99.90;;;;;;6209322;28;89073;-67
2022/10/29 05:54:05;;;;;;;6.90;6.30;;;22.70;99.90;;;;;;6222077;28;89209;-67
2022/10/29 05:57:07;;;;;;;6.50;5.90;;;22.70;99.90;;;;;;6229414;28;89327;-67
2022/10/29 06:00:10;;;;;;;6.75;6.15;;;22.80;99.90;;;;;;6221664;28;89032;-67
2022/10/29 06:03:14;;;;;;;6.97;6.30;;;22.80;99.90;;;;;;6212507;28;87967;-67
2022/10/29 06:06:16;;;;;;;6.88;6.20;;;22.80;99.90;;;;;;6211103;28;89406;-67
2022/10/29 06:09:19;;;;;;;7.30;6.60;;;22.80;99.90;;;;;;6214373;28;88265;-67
2022/10/29 06:12:21;;;;;;;6.70;6.10;;;22.80;99.90;;;;;;6233379;28;89417;-67
2022/10/29 06:15:23;;;;;;;6.72;6.07;;;22.80;99.90;;;;;;6232966;28;89501;-67
2022/10/29 06:18:26;;;;;;;6.68;6.03;;;22.80;99.90;;;;;;6232734;28;90117;-67
2022/10/29 06:21:28;;;;;;;6.57;5.97;;;22.80;99.90;;;;;;6222547;28;88797;-67
2022/10/29 06:24:31;;;;;;;5.80;5.30;;;22.80;99.90;;;;;;6232588;28;89151;-67
2022/10/29 06:27:33;;;;;;;6.70;6.10;;;22.80;99.90;;;;;;6210669;28;89339;-67
2022/10/29 06:30:36;;;;;;;6.63;5.93;;;22.80;99.90;;;;;;6216058;28;89043;-67
2022/10/29 06:33:38;;;;;;;6.38;5.68;;;22.80;99.90;;;;;;6220442;28;88991;-67
2022/10/29 06:36:40;;;;;;;6.60;6.00;;;22.80;99.90;;;;;;6228177;28;88321;-66
2022/10/29 06:39:43;;;;;;;6.65;5.95;;;22.90;99.90;;;;;;6224591;28;88675;-67
2022/10/29 06:42:45;;;;;;;6.32;5.72;;;22.90;99.90;;;;;;6222732;28;89025;-67
2022/10/29 06:45:49;;;;;;;6.15;5.45;;;22.80;99.90;;;;;;6232895;28;89132;-67
2022/10/29 06:48:51;;;;;;;6.38;5.68;;;22.90;99.90;;;;;;6223225;28;89987;-67
2022/10/29 06:51:53;;;;;;;6.60;5.55;;;22.80;99.90;;;;;;6213340;28;89131;-67
2022/10/29 06:54:56;;;;;;;5.95;5.38;;;22.80;99.90;;;;;;6218122;28;89358;-67
2022/10/29 06:58:00;;;;;;;5.60;5.10;;;22.90;99.90;;;;;;6221363;28;90231;-67
2022/10/29 07:01:02;;;;;;;5.75;5.20;;;22.90;99.90;;;;;;6217432;28;89278;-67
2022/10/29 07:04:04;;;;;;;6.40;5.80;;;22.90;99.90;;;;;;6221743;28;89163;-67
2022/10/29 07:07:06;;;;;;;6.15;5.45;;;22.90;99.90;;;;;;6223914;28;88158;-68
2022/10/29 07:10:10;;;;;;;5.82;5.22;;;22.90;99.90;;;;;;6213965;28;88372;-67
2022/10/29 07:13:12;;;;;;;5.53;5.03;;;22.90;99.90;;;;;;6211522;28;90153;-67
2022/10/29 07:16:14;;;;;;;5.55;5.05;;;22.90;99.90;;;;;;6219885;28;89076;-67
2022/10/29 07:19:16;;;;;;;5.75;5.20;;;22.90;99.90;;;;;;6215013;28;91561;-67
2022/10/29 07:22:18;;;;;;;6.47;5.22;;;22.90;99.90;;;;;;6210773;28;89191;-67
2022/10/29 07:25:22;;;;;;;5.78;5.18;;;22.90;99.90;;;;;;6223301;28;90476;-68
2022/10/29 07:28:24;;;;;;;5.82;5.18;;;22.90;99.90;;;;;;6218453;28;89207;-67
2022/10/29 07:31:26;;;;;;;6.03;5.40;;;22.90;99.90;;;;;;6224596;28;89123;-68
2022/10/29 07:34:28;;;;;;;6.00;5.40;;;22.90;99.90;;;;;;6208813;28;89186;-65
2022/10/29 07:37:30;;;;;;;4.95;4.50;;;22.90;99.90;;;;;;6219628;28;89545;-70
2022/10/29 07:40:34;;;;;;;5.20;4.70;;;22.90;99.90;;;;;;6226097;28;88031;-66
2022/10/29 07:43:36;;;;;;;4.60;4.20;;;22.90;99.90;;;;;;6218275;28;89070;-66
2022/10/29 07:46:38;;;;;;;5.00;4.50;;;22.90;99.90;;;;;;6211694;28;89113;-65
2022/10/29 07:49:40;;;;;;;4.88;4.47;;;23.00;99.90;;;;;;6215246;28;90086;-65
2022/10/29 07:52:42;;;;;;;5.38;4.43;;;22.90;99.90;;;;;;6219637;28;89099;-66
2022/10/29 07:55:52;;;;;;;6.28;4.10;;;22.90;99.90;;;;;;6221688;28;88380;-65
2022/10/29 07:58:54;;;;;;;4.88;4.38;;;22.90;99.90;;;;;;6219253;28;89058;-66
2022/10/29 08:01:56;;;;;;;5.13;4.50;;;23.00;99.90;;;;;;6216481;28;88952;-66
2022/10/29 08:04:58;;;;;;;8.15;5.07;;;23.00;99.90;;;;;;6231199;28;89143;-66
2022/10/29 08:08:00;;;;;;;6.68;4.32;;;23.00;99.90;;;;;;6210498;28;88744;-66
2022/10/29 08:11:05;;;;;;;4.88;4.38;;;22.90;99.90;;;;;;6226240;28;86411;-66
2022/10/29 08:14:07;;;;;;;16.08;11.27;;;22.90;99.90;;;;;;6230730;28;89127;-66
2022/10/29 08:17:09;;;;;;;22.02;10.77;;;22.90;99.90;;;;;;6216903;28;88049;-65
2022/10/29 08:20:12;;;;;;;9.77;7.10;;;23.00;99.90;;;;;;6227431;28;89952;-66
2022/10/29 08:23:14;;;;;;;6.97;6.00;;;23.00;99.90;;;;;;6218169;28;89417;-65
2022/10/29 08:26:19;;;;;;;10.38;7.35;;;23.00;99.90;;;;;;6222307;28;89110;-66
2022/10/29 08:29:21;;;;;;;8.43;6.97;;;23.00;99.90;;;;;;6217887;28;89110;-64
2022/10/29 08:32:23;;;;;;;9.43;7.03;;;23.00;99.90;;;;;;6217534;28;89508;-66
2022/10/29 08:35:26;;;;;;;11.32;8.70;;;23.00;99.90;;;;;;6219778;28;89085;-66
2022/10/29 08:38:28;;;;;;;42.65;24.42;;;23.00;99.90;;;;;;6227914;28;87650;-66
2022/10/29 08:41:52;;;;;;;41.72;25.52;;;23.00;99.90;;;;;;6216502;28;88306;-66
2022/10/29 08:45:16;;;;;;;35.55;23.02;;;23.00;99.90;;;;;;6223031;28;89022;-65
2022/10/29 08:48:37;;;;;;;33.17;20.27;;;23.10;99.90;;;;;;6223793;28;89065;-66
2022/10/29 08:51:44;;;;;;;35.22;21.27;;;23.00;99.90;;;;;;6220502;28;90000;-66
2022/10/29 08:54:52;;;;;;;36.17;21.08;;;23.00;99.90;;;;;;6219414;28;89279;-66
2022/10/29 08:57:59;;;;;;;32.28;20.45;;;23.00;99.90;;;;;;6213265;28;89164;-66
2022/10/29 09:01:01;;;;;;;31.88;19.30;;;23.00;99.90;;;;;;6221458;28;89195;-66
2022/10/29 09:04:11;;;;;;;28.10;18.05;;;23.00;99.90;;;;;;6212215;28;89092;-66
2022/10/29 09:07:39;;;;;;;28.63;17.75;;;23.00;99.90;;;;;;6227117;28;89076;-66
2022/10/29 09:10:47;;;;;;;28.05;17.30;;;23.10;99.90;;;;;;6217558;28;89383;-66
2022/10/29 09:14:03;;;;;;;25.70;16.05;;;23.00;99.90;;;;;;6227267;28;88392;-66
2022/10/29 09:17:16;;;;;;;26.50;16.40;;;23.00;99.90;;;;;;6221887;28;89004;-66
2022/10/29 09:20:24;;;;;;;24.55;15.88;;;23.00;99.90;;;;;;6204657;28;89006;-66
2022/10/29 09:23:40;;;;;;;22.88;15.48;;;23.00;99.90;;;;;;6223445;28;90199;-66
2022/10/29 09:26:52;;;;;;;23.33;15.30;;;23.00;99.90;;;;;;6215638;28;89251;-66
2022/10/29 09:30:06;;;;;;;24.15;14.50;;;23.00;99.90;;;;;;6221833;28;88998;-66
2022/10/29 09:33:14;;;;;;;20.55;13.98;;;23.00;99.90;;;;;;6221630;28;89081;-66
2022/10/29 09:36:20;;;;;;;21.77;13.95;;;23.00;99.90;;;;;;6227161;28;89048;-66
2022/10/29 09:39:30;;;;;;;19.45;13.57;;;23.00;99.90;;;;;;6233197;28;89117;-66
2022/10/29 09:42:36;;;;;;;18.65;13.25;;;23.00;99.90;;;;;;6230928;28;89065;-66
2022/10/29 09:45:48;;;;;;;18.58;13.15;;;23.00;99.90;;;;;;6210751;28;88314;-66
2022/10/29 09:48:57;;;;;;;21.65;12.90;;;23.00;99.90;;;;;;6223248;28;89120;-67
2022/10/29 09:52:04;;;;;;;18.92;13.00;;;23.00;99.90;;;;;;6233147;28;89068;-67
2022/10/29 09:55:11;;;;;;;19.00;12.00;;;23.00;99.90;;;;;;6230906;28;88918;-66
2022/10/29 09:58:19;;;;;;;17.05;11.77;;;23.00;99.90;;;;;;6226582;28;90547;-66
2022/10/29 10:01:22;;;;;;;17.33;11.60;;;23.00;99.90;;;;;;6221641;28;88602;-66
2022/10/29 10:04:29;;;;;;;16.17;11.57;;;23.00;99.90;;;;;;6210362;28;89256;-67
2022/10/29 10:07:31;;;;;;;14.88;11.10;;;23.00;99.90;;;;;;6220292;28;88954;-66
2022/10/29 10:10:35;;;;;;;18.35;12.20;;;23.00;99.90;;;;;;6231220;28;88968;-67
2022/10/29 10:13:51;;;;;;;16.02;11.63;;;23.00;99.90;;;;;;6208819;28;88063;-67
2022/10/29 10:16:59;;;;;;;16.95;10.90;;;22.90;99.90;;;;;;6222329;28;87261;-66
2022/10/29 10:20:01;;;;;;;17.20;10.77;;;22.90;99.90;;;;;;6233443;28;89141;-67
2022/10/29 10:23:18;;;;;;;15.27;10.73;;;22.90;99.90;;;;;;6219418;28;89166;-67
2022/10/29 10:26:32;;;;;;;15.15;10.60;;;22.90;99.90;;;;;;6219066;28;90515;-67
2022/10/29 10:29:34;;;;;;;13.20;10.13;;;22.90;99.90;;;;;;6221081;28;87935;-66
2022/10/29 10:32:38;;;;;;;14.98;10.30;;;22.90;99.90;;;;;;6233090;28;89055;-67
2022/10/29 10:35:40;;;;;;;14.65;10.70;;;22.90;99.90;;;;;;6217884;28;89102;-66
2022/10/29 10:38:44;;;;;;;12.20;10.05;;;22.90;99.90;;;;;;6232346;28;89175;-66
2022/10/29 10:41:48;;;;;;;14.63;10.50;;;22.90;99.90;;;;;;6232204;28;89162;-66
2022/10/29 10:44:53;;;;;;;15.43;10.27;;;22.90;99.90;;;;;;6231333;28;89147;-66
2022/10/29 10:47:58;;;;;;;15.35;10.00;;;22.90;99.90;;;;;;6231221;28;88285;-66
2022/10/29 10:51:18;;;;;;;13.95;9.68;;;22.90;99.90;;;;;;6217352;28;87986;-66
2022/10/29 10:54:35;;;;;;;13.65;9.70;;;22.90;99.90;;;;;;6231341;28;89123;-67
2022/10/29 10:57:42;;;;;;;13.18;10.27;;;22.90;99.90;;;;;;6231063;28;90007;-67
2022/10/29 11:00:49;;;;;;;12.60;9.52;;;22.90;99.90;;;;;;6231709;28;88706;-67
2022/10/29 11:04:02;;;;;;;14.23;9.60;;;22.90;99.90;;;;;;6222568;28;87990;-67
2022/10/29 11:07:08;;;;;;;11.32;9.02;;;22.80;99.90;;;;;;6221537;28;89243;-66
2022/10/29 11:10:13;;;;;;;12.32;8.85;;;22.80;99.90;;;;;;6230842;28;89294;-67
2022/10/29 11:13:18;;;;;;;12.63;9.38;;;22.80;99.90;;;;;;6210717;28;89020;-67
2022/10/29 11:16:26;;;;;;;11.07;8.75;;;22.80;99.90;;;;;;6228170;28;89189;-67
2022/10/29 11:19:35;;;;;;;11.80;8.95;;;22.80;99.90;;;;;;6220203;28;88702;-67
2022/10/29 11:22:49;;;;;;;11.95;8.52;;;22.80;99.90;;;;;;6225315;28;89065;-67
2022/10/29 11:25:57;;;;;;;12.05;8.75;;;22.80;99.90;;;;;;6225833;28;89080;-67
2022/10/29 11:29:03;;;;;;;11.32;8.75;;;22.80;99.90;;;;;;6217959;28;90412;-67
2022/10/29 11:32:12;;;;;;;10.25;8.32;;;22.80;99.90;;;;;;6230085;28;89059;-67
2022/10/29 11:35:20;;;;;;;11.60;8.65;;;22.90;99.90;;;;;;6228306;28;88267;-66
2022/10/29 11:38:25;;;;;;;11.05;8.27;;;22.80;99.90;;;;;;6222988;28;87993;-67
2022/10/29 11:41:36;;;;;;;12.07;8.90;;;22.80;99.90;;;;;;6227285;28;89141;-67
2022/10/29 11:44:39;;;;;;;11.30;8.32;;;22.80;99.90;;;;;;6210866;28;89055;-67
2022/10/29 11:48:06;;;;;;;10.38;8.25;;;22.80;99.90;;;;;;6208957;28;89140;-67
2022/10/29 11:51:19;;;;;;;10.23;8.23;;;22.80;99.90;;;;;;6222224;28;88572;-67
2022/10/29 11:54:37;;;;;;;10.50;8.15;;;22.80;99.90;;;;;;6217149;28;89508;-67
2022/10/29 11:57:45;;;;;;;10.35;7.82;;;22.80;99.90;;;;;;6221414;28;89492;-67
2022/10/29 12:01:03;;;;;;;11.77;8.13;;;22.80;99.90;;;;;;6228709;28;90117;-67
2022/10/29 12:04:26;;;;;;;11.05;7.97;;;22.80;99.90;;;;;;6220040;28;89116;-67
2022/10/29 12:07:42;;;;;;;10.82;7.95;;;22.80;99.90;;;;;;6221718;28;89362;-67
2022/10/29 12:10:50;;;;;;;9.15;7.22;;;22.80;99.90;;;;;;6231602;28;89319;-67
2022/10/29 12:14:03;;;;;;;11.40;7.68;;;22.80;99.90;;;;;;6217437;28;88295;-67
2022/10/29 12:17:09;;;;;;;8.57;7.38;;;22.80;99.90;;;;;;6219857;28;89046;-66
2022/10/29 12:20:17;;;;;;;8.13;6.85;;;22.80;99.90;;;;;;6207601;28;89199;-67
2022/10/29 12:23:33;;;;;;;7.68;6.82;;;22.80;99.90;;;;;;6231657;28;89339;-67
2022/10/29 12:26:43;;;;;;;9.63;6.78;;;22.80;99.90;;;;;;6220095;28;89108;-67
2022/10/29 12:29:52;;;;;;;7.95;6.68;;;22.80;99.90;;;;;;6220604;28;89083;-66
2022/10/29 12:33:03;;;;;;;7.95;6.80;;;22.90;99.90;;;;;;6218091;28;91141;-67
2022/10/29 12:36:11;;;;;;;7.80;6.65;;;22.80;99.90;;;;;;6229899;28;89282;-67
2022/10/29 12:39:25;;;;;;;9.00;6.80;;;22.80;99.90;;;;;;6230700;28;89157;-67
2022/10/29 12:42:29;;;;;;;7.95;6.28;;;22.80;99.90;;;;;;6225404;28;89131;-67
2022/10/29 12:45:37;;;;;;;8.73;6.75;;;22.80;99.90;;;;;;6218804;28;89081;-66
2022/10/29 12:48:46;;;;;;;9.05;6.70;;;22.80;99.90;;;;;;6228397;28;90377;-67
2022/10/29 12:51:53;;;;;;;7.88;6.78;;;22.80;99.90;;;;;;6221155;28;89481;-67
2022/10/29 12:54:59;;;;;;;9.25;6.75;;;22.80;99.90;;;;;;6217974;28;88449;-67
2022/10/29 12:58:34;;;;;;;8.10;6.45;;;22.80;99.90;;;;;;6222151;28;89158;-67
2022/10/29 13:01:46;;;;;;;8.30;6.28;;;22.80;99.90;;;;;;6231656;28;89405;-67
2022/10/29 13:05:15;;;;;;;8.30;6.57;;;22.80;99.90;;;;;;6228763;28;89999;-67
2022/10/29 13:08:35;;;;;;;7.63;5.95;;;22.80;99.90;;;;;;6223285;28;87976;-67
2022/10/29 13:11:46;;;;;;;6.72;6.03;;;22.80;99.90;;;;;;6230557;28;89085;-67
2022/10/29 13:14:53;;;;;;;7.47;5.88;;;22.70;99.90;;;;;;6226973;28;89085;-67
2022/10/29 13:17:58;;;;;;;7.13;6.10;;;22.80;99.90;;;;;;6230459;28;89097;-67
2022/10/29 13:21:00;;;;;;;7.05;6.05;;;22.70;99.90;;;;;;6217003;28;87007;-67
2022/10/29 13:24:04;;;;;;;7.32;6.28;;;22.70;99.90;;;;;;6227125;28;89060;-67
2022/10/29 13:27:33;;;;;;;6.97;6.28;;;22.70;99.90;;;;;;6234193;28;88327;-67
2022/10/29 13:30:36;;;;;;;7.18;5.95;;;22.80;99.90;;;;;;6234139;28;89428;-67
2022/10/29 13:33:51;;;;;;;7.63;5.97;;;22.70;99.90;;;;;;6233992;28;89043;-67
2022/10/29 13:36:53;;;;;;;6.32;5.55;;;22.80;99.90;;;;;;6222399;28;90253;-67
2022/10/29 13:40:28;;;;;;;7.55;6.18;;;22.70;99.90;;;;;;6222232;28;89390;-67
2022/10/29 13:43:33;;;;;;;8.38;5.75;;;22.70;99.90;;;;;;6228228;28;90308;-67
2022/10/29 13:46:47;;;;;;;6.50;5.57;;;22.80;99.90;;;;;;6222910;28;87987;-66
2022/10/29 13:49:50;;;;;;;7.32;5.78;;;22.70;99.90;;;;;;6230851;28;89073;-67
2022/10/29 13:52:56;;;;;;;7.65;5.70;;;22.70;99.90;;;;;;6224761;28;89385;-67
2022/10/29 13:55:59;;;;;;;7.95;5.90;;;22.70;99.90;;;;;;6232179;28;89121;-67
2022/10/29 13:59:09;;;;;;;6.15;5.55;;;22.70;99.90;;;;;;6235677;28;88486;-67
2022/10/29 14:02:23;;;;;;;7.25;5.60;;;22.70;99.90;;;;;;6209534;28;89077;-67
2022/10/29 14:05:29;;;;;;;6.10;5.50;;;22.70;99.90;;;;;;6222016;28;89061;-67
2022/10/29 14:08:37;;;;;;;6.18;5.40;;;22.70;99.90;;;;;;6233487;28;90179;-67
2022/10/29 14:11:42;;;;;;;5.95;5.28;;;22.70;99.90;;;;;;6224903;28;89459;-66
2022/10/29 14:14:53;;;;;;;6.00;5.30;;;22.70;99.90;;;;;;6217329;28;89096;-67
2022/10/29 14:17:55;;;;;;;6.43;5.40;;;22.70;99.90;;;;;;6220117;28;89017;-66
2022/10/29 14:20:58;;;;;;;6.35;5.20;;;22.70;99.90;;;;;;6220236;28;89091;-67
2022/10/29 14:24:01;;;;;;;5.82;5.22;;;22.70;99.90;;;;;;6228965;28;89167;-67
2022/10/29 14:27:07;;;;;;;6.20;5.28;;;22.70;99.90;;;;;;6224527;28;89118;-67
2022/10/29 14:30:18;;;;;;;6.20;5.60;;;22.70;99.90;;;;;;6232191;28;88540;-67
2022/10/29 14:33:25;;;;;;;6.28;5.18;;;22.70;99.90;;;;;;6223009;28;89029;-67
2022/10/29 14:36:31;;;;;;;6.25;5.30;;;22.70;99.90;;;;;;6232787;28;89148;-67
2022/10/29 14:39:38;;;;;;;6.20;5.00;;;22.70;99.90;;;;;;6220992;28;90137;-67
2022/10/29 14:42:44;;;;;;;7.78;5.20;;;22.70;99.90;;;;;;6232992;28;89028;-67
2022/10/29 14:45:48;;;;;;;5.82;5.22;;;22.70;99.90;;;;;;6231268;28;89245;-67
2022/10/29 14:48:58;;;;;;;5.40;4.90;;;22.70;99.90;;;;;;6230318;28;89187;-67
2022/10/29 14:52:03;;;;;;;5.72;5.13;;;22.70;99.90;;;;;;6228979;28;89115;-67
2022/10/29 14:55:08;;;;;;;5.47;4.88;;;22.70;99.90;;;;;;6231645;28;88119;-67
2022/10/29 14:58:19;;;;;;;6.13;5.40;;;22.70;99.90;;;;;;6231367;28;89045;-67
2022/10/29 15:01:22;;;;;;;4.80;4.40;;;22.70;99.90;;;;;;6220183;28;88343;-67
2022/10/29 15:04:27;;;;;;;5.35;4.85;;;22.70;99.90;;;;;;6230312;28;89316;-67
2022/10/29 15:07:33;;;;;;;5.22;4.43;;;22.70;99.90;;;;;;6219289;28;89061;-67
2022/10/29 15:10:46;;;;;;;5.20;4.70;;;22.70;99.90;;;;;;6230950;28;90027;-67
2022/10/29 15:13:48;;;;;;;5.25;4.75;;;22.70;99.90;;;;;;6208173;28;89433;-67
2022/10/29 15:16:52;;;;;;;5.25;4.75;;;22.70;99.90;;;;;;6231773;28;89027;-67
2022/10/29 15:19:57;;;;;;;5.22;4.70;;;22.70;99.90;;;;;;6232746;28;89324;-67
2022/10/29 15:22:59;;;;;;;5.72;4.80;;;22.70;99.90;;;;;;6232314;28;89220;-66
2022/10/29 15:26:05;;;;;;;5.45;4.70;;;22.70;99.90;;;;;;6231746;28;88182;-67
2022/10/29 15:29:11;;;;;;;5.03;4.53;;;22.70;99.90;;;;;;6219198;28;89180;-66
2022/10/29 15:32:16;;;;;;;5.20;4.40;;;22.70;99.90;;;;;;6231551;28;90180;-67
2022/10/29 15:35:20;;;;;;;5.85;4.50;;;22.70;99.90;;;;;;6231640;28;89085;-67
2022/10/29 15:39:10;;;;;;;4.68;4.20;;;22.70;99.90;;;;;;6228899;28;89421;-67
2022/10/29 15:42:21;;;;;;;4.45;4.05;;;22.70;99.90;;;;;;6227682;28;90136;-67
2022/10/29 15:45:25;;;;;;;4.97;4.38;;;22.70;99.90;;;;;;6213074;28;89025;-67
2022/10/29 15:48:36;;;;;;;5.20;4.70;;;22.70;99.90;;;;;;6225868;28;89373;-67
2022/10/29 15:51:38;;;;;;;4.38;4.00;;;22.60;99.90;;;;;;6232509;28;89005;-66
2022/10/29 15:54:40;;;;;;;5.25;4.22;;;22.70;99.90;;;;;;6228821;28;89025;-67
2022/10/29 15:57:44;;;;;;;5.82;4.93;;;22.70;99.90;;;;;;6219600;28;88952;-67
2022/10/29 16:00:46;;;;;;;5.53;4.50;;;22.70;99.90;;;;;;6220544;28;89510;-67
2022/10/29 16:03:49;;;;;;;4.68;4.28;;;22.60;99.90;;;;;;6232372;28;88302;-67
2022/10/29 16:06:51;;;;;;;4.63;4.07;;;22.70;99.90;;;;;;6229440;28;87880;-67
2022/10/29 16:09:56;;;;;;;4.60;4.05;;;22.70;99.90;;;;;;6224179;28;89027;-67
2022/10/29 16:12:58;;;;;;;5.07;4.22;;;22.60;99.90;;;;;;6226457;28;90094;-67
2022/10/29 16:16:01;;;;;;;4.63;3.97;;;22.60;99.90;;;;;;6231135;28;89002;-66
2022/10/29 16:19:04;;;;;;;4.57;4.18;;;22.70;99.90;;;;;;6230437;28;89035;-67
2022/10/29 16:22:10;;;;;;;5.53;4.50;;;22.60;99.90;;;;;;6231298;28;89172;-67
2022/10/29 16:25:25;;;;;;;5.40;4.55;;;22.60;99.90;;;;;;6230472;28;89536;-67
2022/10/29 16:28:27;;;;;;;5.45;4.30;;;22.70;99.90;;;;;;6220022;28;87996;-67
2022/10/29 16:31:29;;;;;;;5.07;4.10;;;22.60;99.90;;;;;;6220523;28;89049;-66
2022/10/29 16:34:33;;;;;;;5.82;4.57;;;22.60;99.90;;;;;;6208133;28;88289;-67
2022/10/29 16:37:35;;;;;;;4.60;4.20;;;22.60;99.90;;;;;;6229499;28;87964;-67
2022/10/29 16:40:37;;;;;;;4.60;4.20;;;22.60;99.90;;;;;;6219307;28;89049;-67
2022/10/29 16:43:40;;;;;;;4.78;4.30;;;22.60;99.90;;;;;;6218425;28;89519;-66
2022/10/29 16:46:42;;;;;;;4.40;4.00;;;22.60;99.90;;;;;;6229471;28;89391;-67
2022/10/29 16:49:45;;;;;;;4.85;4.35;;;22.60;99.90;;;;;;6230721;28;89407;-67
2022/10/29 16:52:49;;;;;;;5.00;4.50;;;22.60;99.90;;;;;;6226467;28;89069;-67
2022/10/29 16:55:51;;;;;;;4.90;4.30;;;22.60;99.90;;;;;;6211099;28;87989;-67
2022/10/29 16:58:56;;;;;;;4.78;4.28;;;22.60;99.90;;;;;;6231403;28;89159;-67
2022/10/29 17:01:59;;;;;;;4.72;4.32;;;22.60;99.90;;;;;;6218416;28;89146;-67
2022/10/29 17:05:03;;;;;;;4.70;4.20;;;22.60;99.90;;;;;;6228103;28;88328;-66
2022/10/29 17:08:06;;;;;;;4.50;4.10;;;22.60;99.90;;;;;;6230575;28;89887;-66
2022/10/29 17:11:08;;;;;;;5.07;4.57;;;22.60;99.90;;;;;;6213101;28;88008;-67
2022/10/29 17:14:10;;;;;;;4.60;4.18;;;22.60;99.90;;;;;;6221091;28;89945;-67
2022/10/29 17:17:12;;;;;;;5.00;4.32;;;22.60;99.90;;;;;;6216066;28;89056;-66
2022/10/29 17:20:16;;;;;;;4.65;4.25;;;22.60;99.90;;;;;;6230628;28;89556;-67
2022/10/29 17:23:18;;;;;;;5.32;4.50;;;22.60;99.90;;;;;;6207142;28;90165;-66
2022/10/29 17:26:20;;;;;;;5.20;4.18;;;22.60;99.90;;;;;;6216025;28;89135;-67
2022/10/29 17:29:23;;;;;;;4.20;3.80;;;22.60;99.90;;;;;;6221088;28;89164;-66
2022/10/29 17:32:25;;;;;;;5.05;4.45;;;22.60;99.90;;;;;;6219335;28;89168;-67
2022/10/29 17:35:29;;;;;;;4.82;4.20;;;22.60;99.90;;;;;;6212923;28;88660;-67
2022/10/29 17:38:31;;;;;;;4.65;4.25;;;22.60;99.90;;;;;;6228799;28;87899;-66
2022/10/29 17:41:33;;;;;;;4.97;4.07;;;22.60;99.90;;;;;;6222062;28;89457;-67
2022/10/29 17:44:36;;;;;;;4.68;4.07;;;22.60;99.90;;;;;;6221874;28;90370;-67
2022/10/29 17:47:39;;;;;;;4.50;3.90;;;22.60;99.90;;;;;;6198169;28;88162;-67
2022/10/29 17:50:51;;;;;;;4.53;4.13;;;22.60;99.90;;;;;;6207565;28;89072;-67
2022/10/29 17:53:54;;;;;;;4.97;4.10;;;22.60;99.90;;;;;;6219102;28;89376;-67
2022/10/29 17:56:56;;;;;;;5.15;4.10;;;22.60;99.90;;;;;;6218333;28;87556;-67
2022/10/29 17:59:58;;;;;;;5.72;4.50;;;22.60;99.90;;;;;;6229568;28;87078;-67
2022/10/29 18:03:01;;;;;;;4.63;4.20;;;22.60;99.90;;;;;;6232930;28;88489;-67
2022/10/29 18:06:07;;;;;;;6.68;4.65;;;22.60;99.90;;;;;;6230993;28;88401;-67
2022/10/29 18:09:09;;;;;;;5.72;4.43;;;22.60;99.90;;;;;;6233355;28;88134;-67
2022/10/29 18:12:11;;;;;;;5.07;4.10;;;22.60;99.90;;;;;;6231820;28;89897;-67
2022/10/29 18:15:14;;;;;;;4.90;4.40;;;22.60;99.90;;;;;;6221761;28;91107;-67
2022/10/29 18:18:16;;;;;;;5.05;4.25;;;22.60;99.90;;;;;;6218137;28;88339;-66
2022/10/29 18:21:22;;;;;;;4.82;4.30;;;22.60;99.90;;;;;;6224381;28;89077;-67
2022/10/29 18:24:25;;;;;;;4.65;4.15;;;22.60;99.90;;;;;;6225340;28;89367;-67
2022/10/29 18:27:27;;;;;;;4.50;4.10;;;22.60;99.90;;;;;;6221862;28;89066;-67
2022/10/29 18:30:30;;;;;;;5.15;4.07;;;22.60;99.90;;;;;;6230720;28;89331;-67
2022/10/29 18:33:32;;;;;;;5.88;4.22;;;22.60;99.90;;;;;;6232334;28;89200;-67
2022/10/29 18:36:39;;;;;;;4.70;3.95;;;22.60;99.90;;;;;;6229443;28;88317;-67
2022/10/29 18:39:41;;;;;;;6.35;4.47;;;22.60;99.90;;;;;;6227410;28;88059;-67
2022/10/29 18:42:44;;;;;;;5.20;3.85;;;22.70;99.90;;;;;;6232040;28;89098;-67
2022/10/29 18:45:54;;;;;;;4.50;4.10;;;22.60;99.90;;;;;;6221469;28;89991;-67
2022/10/29 18:48:57;;;;;;;4.78;4.22;;;22.60;99.90;;;;;;6230072;28;89195;-66
2022/10/29 18:52:01;;;;;;;4.53;4.13;;;22.70;99.90;;;;;;6221602;28;89171;-67
2022/10/29 18:55:04;;;;;;;4.22;3.80;;;22.70;99.90;;;;;;6222047;28;89108;-67
2022/10/29 18:58:07;;;;;;;6.03;4.07;;;22.70;99.90;;;;;;6227132;28;87023;-66
2022/10/29 19:01:11;;;;;;;4.38;3.97;;;22.70;99.90;;;;;;6218681;28;88088;-67
2022/10/29 19:04:15;;;;;;;6.15;4.47;;;22.70;99.90;;;;;;6217311;28;89001;-67
2022/10/29 19:07:19;;;;;;;6.72;4.40;;;22.70;99.90;;;;;;6233387;28;88370;-67
2022/10/29 19:10:22;;;;;;;4.30;3.90;;;22.70;99.90;;;;;;6220841;28;89030;-66
2022/10/29 19:13:25;;;;;;;4.40;4.00;;;22.70;99.90;;;;;;6228926;28;88134;-66
2022/10/29 19:16:28;;;;;;;4.20;3.80;;;22.70;99.90;;;;;;6223930;28;88925;-66
2022/10/29 19:19:30;;;;;;;4.85;4.28;;;22.70;99.90;;;;;;6209189;28;88555;-67
2022/10/29 19:22:34;;;;;;;5.30;4.05;;;22.70;99.90;;;;;;6217766;28;89087;-67
2022/10/29 19:25:40;;;;;;;4.47;3.70;;;22.70;99.90;;;;;;6223301;28;89451;-67
2022/10/29 19:28:43;;;;;;;6.03;4.50;;;22.70;99.90;;;;;;6217861;28;89093;-66
2022/10/29 19:31:46;;;;;;;4.90;4.40;;;22.70;99.90;;;;;;6231553;28;89528;-67
2022/10/29 19:34:48;;;;;;;4.47;3.90;;;22.70;99.90;;;;;;6222110;28;88038;-66
2022/10/29 19:37:52;;;;;;;4.57;4.07;;;22.70;99.90;;;;;;6230952;28;88704;-66
2022/10/29 19:40:55;;;;;;;4.72;3.95;;;22.70;99.90;;;;;;6230193;28;89114;-67
2022/10/29 19:44:01;;;;;;;4.40;4.00;;;22.70;99.90;;;;;;6221391;28;89262;-67
2022/10/29 19:47:04;;;;;;;4.15;3.78;;;22.70;99.90;;;;;;6228565;28;89262;-67
2022/10/29 19:50:08;;;;;;;4.78;4.38;;;22.70;99.90;;;;;;6223731;28;88029;-67
2022/10/29 19:53:12;;;;;;;5.22;3.88;;;22.70;99.90;;;;;;6208506;28;89158;-66
2022/10/29 19:56:16;;;;;;;4.38;3.97;;;22.70;99.90;;;;;;6208848;28;89184;-66
2022/10/29 19:59:18;;;;;;;4.57;4.18;;;22.70;99.90;;;;;;6226709;28;89455;-66
2022/10/29 20:02:21;;;;;;;4.85;4.20;;;22.70;99.90;;;;;;6222332;28;89057;-66
2022/10/29 20:05:24;;;;;;;4.90;4.35;;;22.80;99.90;;;;;;6220582;28;89204;-66
2022/10/29 20:08:29;;;;;;;5.05;3.88;;;22.80;99.90;;;;;;6220402;28;87852;-66
2022/10/29 20:11:32;;;;;;;4.25;3.85;;;22.80;99.90;;;;;;6218850;28;89084;-66
2022/10/29 20:14:35;;;;;;;4.82;4.40;;;22.80;99.90;;;;;;6210018;28;90227;-66
2022/10/29 20:17:37;;;;;;;6.53;4.22;;;22.80;99.90;;;;;;6227579;28;89963;-66
2022/10/29 20:20:39;;;;;;;5.30;4.18;;;22.80;99.90;;;;;;6214270;28;90914;-66
2022/10/29 20:23:44;;;;;;;5.82;4.32;;;22.90;99.90;;;;;;6226726;28;89126;-66
2022/10/29 20:26:46;;;;;;;4.95;4.20;;;22.80;99.90;;;;;;6204427;28;89091;-67
2022/10/29 20:29:48;;;;;;;7.63;4.28;;;22.80;99.90;;;;;;6221635;28;89331;-66
2022/10/29 20:32:50;;;;;;;6.80;4.47;;;22.80;99.90;;;;;;6223405;28;90006;-66
2022/10/29 20:35:54;;;;;;;6.38;4.65;;;22.80;99.90;;;;;;6217883;28;89356;-66
2022/10/29 20:38:57;;;;;;;4.75;4.10;;;22.70;99.90;;;;;;6229058;28;88322;-66